createdAt,value
2023-05-01T00:02:51.270Z,11.25
2023-05-01T00:06:00.501Z,11.20
2023-05-01T00:09:03.793Z,11.20
2023-05-01T00:12:06.610Z,11.14
2023-05-01T00:15:11.975Z,11.09
2023-05-01T00:18:14.822Z,11.04
2023-05-01T00:21:17.870Z,11.00
2023-05-01T00:24:20.545Z,10.96
2023-05-01T00:27:23.483Z,10.95
2023-05-01T00:30:28.286Z,10.90
2023-05-01T00:33:30.942Z,10.88
2023-05-01T00:36:33.711Z,10.84
2023-05-01T00:39:36.414Z,10.82
2023-05-01T00:42:39.957Z,10.79
2023-05-01T00:45:46.050Z,10.75
2023-05-01T00:48:48.841Z,10.73
2023-05-01T00:51:54.252Z,10.70
2023-05-01T00:54:57.938Z,10.68
2023-05-01T00:58:02.557Z,10.67
2023-05-01T01:01:08.780Z,10.63
2023-05-01T01:04:11.949Z,10.64
2023-05-01T01:07:21.752Z,10.58
2023-05-01T01:10:32.047Z,10.53
2023-05-01T01:13:40.818Z,10.43
2023-05-01T01:16:50.145Z,10.51
2023-05-01T01:20:18.697Z,10.47
2023-05-01T01:23:54.250Z,10.47
2023-05-01T01:27:20.497Z,10.47
2023-05-01T01:30:46.847Z,10.48
2023-05-01T01:34:02.520Z,10.45
2023-05-01T01:37:13.277Z,10.45
2023-05-01T01:40:19.811Z,10.44
2023-05-01T01:43:24.815Z,10.44
2023-05-01T01:46:28.713Z,10.43
2023-05-01T01:49:35.170Z,10.40
2023-05-01T01:52:41.663Z,10.37
2023-05-01T01:55:46.523Z,10.35
2023-05-01T01:58:52.297Z,10.36
2023-05-01T02:01:57.762Z,10.36
2023-05-01T02:05:04.704Z,10.36
2023-05-01T02:08:09.608Z,10.33
2023-05-01T02:11:14.567Z,10.36
2023-05-01T02:14:19.412Z,10.35
2023-05-01T02:17:24.035Z,10.30
2023-05-01T02:20:29.885Z,10.30
2023-05-01T02:23:33.543Z,10.26
2023-05-01T02:26:42.391Z,10.26
2023-05-01T02:29:45.396Z,10.27
2023-05-01T02:32:48.192Z,10.23
2023-05-01T02:35:53.099Z,10.25
2023-05-01T02:38:56.066Z,10.24
2023-05-01T02:42:02.265Z,10.18
2023-05-01T02:45:08.698Z,10.06
2023-05-01T02:48:19.676Z,10.09
2023-05-01T02:51:25.352Z,10.15
2023-05-01T02:54:29.742Z,10.13
2023-05-01T02:57:33.828Z,10.08
2023-05-01T03:00:36.493Z,10.06
2023-05-01T03:03:39.665Z,10.04
2023-05-01T03:06:44.627Z,10.03
2023-05-01T03:09:47.380Z,10.04
2023-05-01T03:12:50.051Z,9.98
2023-05-01T03:15:55.501Z,10.04
2023-05-01T03:18:58.173Z,10.00
2023-05-01T03:22:02.240Z,9.98
2023-05-01T03:25:05.301Z,9.94
2023-05-01T03:28:08.073Z,9.93
2023-05-01T03:31:10.702Z,9.93
2023-05-01T03:34:13.377Z,9.89
2023-05-01T03:37:17.389Z,9.88
2023-05-01T03:40:20.240Z,9.88
2023-05-01T03:43:23.839Z,9.86
2023-05-01T03:46:26.563Z,9.91
2023-05-01T03:49:29.231Z,9.94
2023-05-01T03:52:33.368Z,9.95
2023-05-01T03:55:36.114Z,9.93
2023-05-01T03:58:38.829Z,9.80
2023-05-01T04:01:41.563Z,9.82
2023-05-01T04:04:44.682Z,9.83
2023-05-01T04:07:48.773Z,9.76
2023-05-01T04:10:51.627Z,9.84
2023-05-01T04:13:54.383Z,9.83
2023-05-01T04:16:57.378Z,9.91
2023-05-01T04:20:01.022Z,9.90
2023-05-01T04:23:05.526Z,9.95
2023-05-01T04:26:08.266Z,9.99
2023-05-01T04:29:10.931Z,10.03
2023-05-01T04:32:13.684Z,10.14
2023-05-01T04:35:16.632Z,10.13
2023-05-01T04:38:20.816Z,10.12
2023-05-01T04:41:23.507Z,10.16
2023-05-01T04:44:26.244Z,10.24
2023-05-01T04:47:29.089Z,10.36
2023-05-01T04:50:31.834Z,10.43
2023-05-01T04:53:36.532Z,10.53
2023-05-01T04:56:39.226Z,10.63
2023-05-01T04:59:41.963Z,10.70
2023-05-01T05:02:44.788Z,10.88
2023-05-01T05:05:47.623Z,10.98
2023-05-01T05:08:52.194Z,11.06
2023-05-01T05:11:54.907Z,11.18
2023-05-01T05:14:58.448Z,11.28
2023-05-01T05:18:01.151Z,11.39
2023-05-01T05:21:05.796Z,11.50
2023-05-01T05:24:09.953Z,11.60
2023-05-01T05:27:12.694Z,11.68
2023-05-01T05:30:15.554Z,11.76
2023-05-01T05:33:18.335Z,11.87
2023-05-01T05:36:21.134Z,11.93
2023-05-01T05:39:25.244Z,12.04
2023-05-01T05:42:28.131Z,12.08
2023-05-01T05:45:31.269Z,12.07
2023-05-01T05:48:34.037Z,12.07
2023-05-01T05:51:36.761Z,12.11
2023-05-01T05:54:40.976Z,12.08
2023-05-01T05:57:43.740Z,12.05
2023-05-01T06:00:47.493Z,12.13
2023-05-01T06:03:50.313Z,12.20
2023-05-01T06:06:53.198Z,12.28
2023-05-01T06:10:02.110Z,12.36
2023-05-01T06:13:13.122Z,12.50
2023-05-01T06:16:17.176Z,12.65
2023-05-01T06:19:19.875Z,12.82
2023-05-01T06:22:22.517Z,12.89
2023-05-01T06:25:26.712Z,12.93
2023-05-01T06:28:29.390Z,12.97
2023-05-01T06:31:32.181Z,13.03
2023-05-01T06:34:34.917Z,13.27
2023-05-01T06:37:38.470Z,13.39
2023-05-01T06:40:42.749Z,13.50
2023-05-01T06:43:45.519Z,13.62
2023-05-01T06:46:48.301Z,13.70
2023-05-01T06:49:51.840Z,13.89
2023-05-01T06:52:54.520Z,14.22
2023-05-01T06:55:58.542Z,14.81
2023-05-01T06:59:01.373Z,15.11
2023-05-01T07:02:04.122Z,15.41
2023-05-01T07:05:07.433Z,15.80
2023-05-01T07:08:10.485Z,16.16
2023-05-01T07:11:14.810Z,16.45
2023-05-01T07:14:17.669Z,16.54
2023-05-01T07:17:20.855Z,16.50
2023-05-01T07:20:23.539Z,16.49
2023-05-01T07:23:26.543Z,16.38
2023-05-01T07:26:30.992Z,16.26
2023-05-01T07:29:33.903Z,16.20
2023-05-01T07:32:36.864Z,16.15
2023-05-01T07:35:39.631Z,16.14
2023-05-01T07:38:42.302Z,16.17
2023-05-01T07:41:46.849Z,16.20
2023-05-01T07:44:51.470Z,16.23
2023-05-01T07:47:54.337Z,16.27
2023-05-01T07:50:57.929Z,16.55
2023-05-01T07:54:03.874Z,16.63
2023-05-01T07:57:08.826Z,16.66
2023-05-01T08:00:12.905Z,16.63
2023-05-01T08:03:15.875Z,16.50
2023-05-01T08:06:19.031Z,16.33
2023-05-01T08:09:21.990Z,16.25
2023-05-01T08:12:26.157Z,16.11
2023-05-01T08:15:29.124Z,16.01
2023-05-01T08:18:32.172Z,15.96
2023-05-01T08:21:34.931Z,15.93
2023-05-01T08:24:37.673Z,15.82
2023-05-01T08:27:41.925Z,15.70
2023-05-01T08:30:44.987Z,15.63
2023-05-01T08:33:48.123Z,15.63
2023-05-01T08:36:51.309Z,15.63
2023-05-01T08:39:54.629Z,15.68
2023-05-01T08:43:02.004Z,15.75
2023-05-01T08:46:11.042Z,15.79
2023-05-01T08:49:18.257Z,15.84
2023-05-01T08:52:23.516Z,15.78
2023-05-01T08:55:29.121Z,15.79
2023-05-01T08:58:51.447Z,15.87
2023-05-01T09:02:08.180Z,16.01
2023-05-01T09:05:23.955Z,16.18
2023-05-01T09:08:39.787Z,16.32
2023-05-01T09:11:46.013Z,16.41
2023-05-01T09:14:50.401Z,16.42
2023-05-01T09:18:20.290Z,16.44
2023-05-01T09:21:25.743Z,16.42
2023-05-01T09:24:29.207Z,16.48
2023-05-01T09:27:36.282Z,16.52
2023-05-01T09:30:41.107Z,16.46
2023-05-01T09:33:54.068Z,16.36
2023-05-01T09:36:56.935Z,16.29
2023-05-01T09:40:05.700Z,16.25
2023-05-01T09:43:11.170Z,16.27
2023-05-01T09:46:16.426Z,16.20
2023-05-01T09:49:19.499Z,16.14
2023-05-01T09:52:22.512Z,16.15
2023-05-01T09:55:26.025Z,16.23
2023-05-01T09:58:29.396Z,16.03
2023-05-01T10:01:41.722Z,16.13
2023-05-01T10:04:44.912Z,16.03
2023-05-01T10:07:58.680Z,16.07
2023-05-01T10:11:04.540Z,16.01
2023-05-01T10:14:09.415Z,16.11
2023-05-01T10:17:20.665Z,16.07
2023-05-01T10:20:24.159Z,16.03
2023-05-01T10:23:26.984Z,16.05
2023-05-01T10:26:30.304Z,16.03
2023-05-01T10:29:36.629Z,16.06
2023-05-01T10:32:44.090Z,15.99
2023-05-01T10:35:55.762Z,16.09
2023-05-01T10:38:59.101Z,15.98
2023-05-01T10:42:03.805Z,15.91
2023-05-01T10:45:30.871Z,15.83
2023-05-01T10:48:55.856Z,15.76
2023-05-01T10:52:03.798Z,15.87
2023-05-01T10:55:34.715Z,15.96
2023-05-01T10:58:58.716Z,16.08
2023-05-01T11:02:01.935Z,16.15
2023-05-01T11:05:06.954Z,16.16
2023-05-01T11:08:31.980Z,16.14
2023-05-01T11:11:52.562Z,16.33
2023-05-01T11:15:08.159Z,16.28
2023-05-01T11:18:12.232Z,16.50
2023-05-01T11:21:17.778Z,16.63
2023-05-01T11:24:20.676Z,16.73
2023-05-01T11:27:23.643Z,16.91
2023-05-01T11:30:26.491Z,17.05
2023-05-01T11:33:29.604Z,17.20
2023-05-01T11:36:49.510Z,17.23
2023-05-01T11:39:53.501Z,17.31
2023-05-01T11:43:02.369Z,17.50
2023-05-01T11:46:05.167Z,17.61
2023-05-01T11:49:08.509Z,17.88
2023-05-01T11:52:13.335Z,18.10
2023-05-01T11:55:16.391Z,18.28
2023-05-01T11:58:19.296Z,18.34
2023-05-01T12:01:22.065Z,18.37
2023-05-01T12:04:30.635Z,18.42
2023-05-01T12:07:37.549Z,18.47
2023-05-01T12:10:43.034Z,18.44
2023-05-01T12:13:47.854Z,18.57
2023-05-01T12:16:51.186Z,18.73
2023-05-01T12:19:54.358Z,18.85
2023-05-01T12:22:58.616Z,19.09
2023-05-01T12:26:02.993Z,19.40
2023-05-01T12:29:07.480Z,19.59
2023-05-01T12:32:10.510Z,19.83
2023-05-01T12:35:15.863Z,19.98
2023-05-01T12:38:21.711Z,19.57
2023-05-01T12:41:34.394Z,19.36
2023-05-01T12:44:37.360Z,19.06
2023-05-01T12:47:40.486Z,18.98
2023-05-01T12:50:44.809Z,18.87
2023-05-01T12:53:51.810Z,18.93
2023-05-01T12:56:54.813Z,19.03
2023-05-01T13:00:02.081Z,18.83
2023-05-01T13:03:06.013Z,18.79
2023-05-01T13:06:09.406Z,18.84
2023-05-01T13:09:15.674Z,19.03
2023-05-01T13:12:19.117Z,19.02
2023-05-01T13:15:24.902Z,19.07
2023-05-01T13:18:28.912Z,19.21
2023-05-01T13:21:37.856Z,19.32
2023-05-01T13:24:47.282Z,19.36
2023-05-01T13:28:01.656Z,19.35
2023-05-01T13:31:17.727Z,19.28
2023-05-01T13:34:29.111Z,19.17
2023-05-01T13:37:32.592Z,19.17
2023-05-01T13:40:37.201Z,19.24
2023-05-01T13:43:50.963Z,19.39
2023-05-01T13:46:54.885Z,19.30
2023-05-01T13:49:59.246Z,19.45
2023-05-01T13:53:03.078Z,19.67
2023-05-01T13:56:08.214Z,19.77
2023-05-01T13:59:11.418Z,19.88
2023-05-01T14:02:21.683Z,20.04
2023-05-01T14:05:28.168Z,20.05
2023-05-01T14:08:31.021Z,20.27
2023-05-01T14:11:35.262Z,20.41
2023-05-01T14:14:49.579Z,20.52
2023-05-01T14:17:52.840Z,20.68
2023-05-01T14:20:55.605Z,20.68
2023-05-01T14:23:58.386Z,20.67
2023-05-01T14:27:02.667Z,20.55
2023-05-01T14:30:08.235Z,20.35
2023-05-01T14:33:12.621Z,20.32
2023-05-01T14:36:15.543Z,20.36
2023-05-01T14:39:19.546Z,20.39
2023-05-01T14:42:23.557Z,20.34
2023-05-01T14:45:26.234Z,20.29
2023-05-01T14:48:36.204Z,20.18
2023-05-01T14:51:42.249Z,20.16
2023-05-01T14:54:47.247Z,20.21
2023-05-01T14:57:51.542Z,20.10
2023-05-01T15:00:54.297Z,19.97
2023-05-01T15:03:57.366Z,19.90
2023-05-01T15:07:01.226Z,19.80
2023-05-01T15:10:04.046Z,19.79
2023-05-01T15:13:08.943Z,19.81
2023-05-01T15:16:12.030Z,19.86
2023-05-01T15:19:14.891Z,19.88
2023-05-01T15:22:18.224Z,20.00
2023-05-01T15:25:21.104Z,20.04
2023-05-01T15:28:25.931Z,20.17
2023-05-01T15:31:28.779Z,20.11
2023-05-01T15:34:31.625Z,20.14
2023-05-01T15:37:34.749Z,20.09
2023-05-01T15:40:37.490Z,20.17
2023-05-01T15:43:41.548Z,20.24
2023-05-01T15:46:44.394Z,20.48
2023-05-01T15:49:48.624Z,20.58
2023-05-01T15:52:52.053Z,20.67
2023-05-01T15:55:58.129Z,20.67
2023-05-01T15:59:05.012Z,20.69
2023-05-01T16:02:08.792Z,20.49
2023-05-01T16:05:12.144Z,20.17
2023-05-01T16:08:15.715Z,19.95
2023-05-01T16:11:19.880Z,19.79
2023-05-01T16:14:24.716Z,19.68
2023-05-01T16:17:27.729Z,19.60
2023-05-01T16:20:34.904Z,19.46
2023-05-01T16:23:38.184Z,19.36
2023-05-01T16:26:41.413Z,19.27
2023-05-01T16:29:45.511Z,19.23
2023-05-01T16:32:48.359Z,19.23
2023-05-01T16:35:51.400Z,19.14
2023-05-01T16:38:54.181Z,19.09
2023-05-01T16:41:57.031Z,19.05
2023-05-01T16:45:02.048Z,19.06
2023-05-01T16:48:05.354Z,18.86
2023-05-01T16:51:08.431Z,18.62
2023-05-01T16:54:11.479Z,18.55
2023-05-01T16:57:15.344Z,18.43
2023-05-01T17:00:20.247Z,18.29
2023-05-01T17:03:22.979Z,18.19
2023-05-01T17:06:26.678Z,18.14
2023-05-01T17:09:29.473Z,17.86
2023-05-01T17:12:32.169Z,17.99
2023-05-01T17:15:36.198Z,17.95
2023-05-01T17:18:38.934Z,17.88
2023-05-01T17:21:43.287Z,17.81
2023-05-01T17:24:46.317Z,17.77
2023-05-01T17:27:49.051Z,17.63
2023-05-01T17:30:53.153Z,17.50
2023-05-01T17:33:55.872Z,17.38
2023-05-01T17:36:58.612Z,17.24
2023-05-01T17:40:02.545Z,17.11
2023-05-01T17:43:05.467Z,16.97
2023-05-01T17:46:09.596Z,16.86
2023-05-01T17:49:12.384Z,16.65
2023-05-01T17:52:15.131Z,16.55
2023-05-01T17:55:18.411Z,16.40
2023-05-01T17:58:22.226Z,16.39
2023-05-01T18:01:26.515Z,16.36
2023-05-01T18:04:29.538Z,16.34
2023-05-01T18:07:32.280Z,16.19
2023-05-01T18:10:35.020Z,16.06
2023-05-01T18:13:39.802Z,15.95
2023-05-01T18:16:44.280Z,15.79
2023-05-01T18:19:47.001Z,15.68
2023-05-01T18:22:50.193Z,15.60
2023-05-01T18:25:52.936Z,15.54
2023-05-01T18:28:55.760Z,15.51
2023-05-01T18:32:00.229Z,15.54
2023-05-01T18:35:03.770Z,15.56
2023-05-01T18:38:06.654Z,15.55
2023-05-01T18:41:09.365Z,15.58
2023-05-01T18:44:12.004Z,15.59
2023-05-01T18:47:16.039Z,15.59
2023-05-01T18:50:22.949Z,15.62
2023-05-01T18:53:26.037Z,15.62
2023-05-01T18:56:28.929Z,15.47
2023-05-01T18:59:32.149Z,15.72
2023-05-01T19:02:36.723Z,15.61
2023-05-01T19:05:41.569Z,15.48
2023-05-01T19:08:44.405Z,15.30
2023-05-01T19:11:47.089Z,15.16
2023-05-01T19:14:49.865Z,15.19
2023-05-01T19:17:54.793Z,15.13
2023-05-01T19:20:57.568Z,15.02
2023-05-01T19:24:00.306Z,14.94
2023-05-01T19:27:03.995Z,14.73
2023-05-01T19:30:08.035Z,14.65
2023-05-01T19:33:12.227Z,14.55
2023-05-01T19:36:15.127Z,14.52
2023-05-01T19:39:17.887Z,14.59
2023-05-01T19:42:20.737Z,14.60
2023-05-01T19:45:23.475Z,14.63
2023-05-01T19:48:27.553Z,14.58
2023-05-01T19:51:31.479Z,14.63
2023-05-01T19:54:34.228Z,14.66
2023-05-01T19:57:37.323Z,14.71
2023-05-01T20:00:40.212Z,14.70
2023-05-01T20:03:44.355Z,14.68
2023-05-01T20:06:47.240Z,14.66
2023-05-01T20:09:50.529Z,14.63
2023-05-01T20:12:53.666Z,14.62
2023-05-01T20:15:56.652Z,14.68
2023-05-01T20:19:00.957Z,14.58
2023-05-01T20:22:03.651Z,14.54
2023-05-01T20:25:09.600Z,14.59
2023-05-01T20:28:14.723Z,14.51
2023-05-01T20:31:17.642Z,14.48
2023-05-01T20:34:21.763Z,14.48
2023-05-01T20:37:24.422Z,14.51
2023-05-01T20:40:28.244Z,14.44
2023-05-01T20:43:30.885Z,14.40
2023-05-01T20:46:34.463Z,14.34
2023-05-01T20:49:38.725Z,14.22
2023-05-01T20:52:41.366Z,14.17
2023-05-01T20:55:44.077Z,14.17
2023-05-01T20:58:46.761Z,14.14
2023-05-01T21:01:49.695Z,14.11
2023-05-01T21:04:53.798Z,14.10
2023-05-01T21:07:57.890Z,14.07
2023-05-01T21:11:02.113Z,14.02
2023-05-01T21:14:04.793Z,13.99
2023-05-01T21:17:07.851Z,13.74
2023-05-01T21:20:16.998Z,13.77
2023-05-01T21:23:19.635Z,13.70
2023-05-01T21:26:22.367Z,13.68
2023-05-01T21:29:25.061Z,13.67
2023-05-01T21:32:32.379Z,13.66
2023-05-01T21:35:36.641Z,13.70
2023-05-01T21:38:39.913Z,13.69
2023-05-01T21:41:42.988Z,13.64
2023-05-01T21:44:45.726Z,13.63
2023-05-01T21:47:50.637Z,13.56
2023-05-01T21:50:54.688Z,13.51
2023-05-01T21:53:57.300Z,13.43
2023-05-01T21:57:00.558Z,13.38
2023-05-01T22:00:04.757Z,13.22
2023-05-01T22:03:08.332Z,13.10
2023-05-01T22:06:12.489Z,12.96
2023-05-01T22:09:15.144Z,12.87
2023-05-01T22:12:17.844Z,12.70
2023-05-01T22:15:20.608Z,12.58
2023-05-01T22:18:23.313Z,12.50
2023-05-01T22:21:27.885Z,12.39
2023-05-01T22:24:31.511Z,12.33
2023-05-01T22:27:34.666Z,12.27
2023-05-01T22:30:38.729Z,12.22
2023-05-01T22:33:41.552Z,12.22
2023-05-01T22:36:45.879Z,12.22
2023-05-01T22:39:48.596Z,12.24
2023-05-01T22:42:51.346Z,12.26
2023-05-01T22:45:54.067Z,12.28
2023-05-01T22:48:57.180Z,12.33
2023-05-01T22:52:02.489Z,12.37
2023-05-01T22:55:06.068Z,12.37
2023-05-01T22:58:08.998Z,12.36
2023-05-01T23:01:11.750Z,12.34
2023-05-01T23:04:15.197Z,12.28
2023-05-01T23:07:19.446Z,12.22
2023-05-01T23:10:25.522Z,12.17
2023-05-01T23:13:28.892Z,12.14
2023-05-01T23:16:38.541Z,12.12
2023-05-01T23:19:43.379Z,12.09
2023-05-01T23:22:48.529Z,12.07
2023-05-01T23:25:51.273Z,12.06
2023-05-01T23:28:54.744Z,12.06
2023-05-01T23:31:57.809Z,12.10
2023-05-01T23:35:04.226Z,12.11
2023-05-01T23:38:08.347Z,12.14
2023-05-01T23:41:11.271Z,12.18
2023-05-01T23:44:13.989Z,12.20
2023-05-01T23:47:16.827Z,12.24
2023-05-01T23:50:19.828Z,12.21
2023-05-01T23:53:24.012Z,12.20
2023-05-01T23:56:26.807Z,11.97
2023-05-01T23:59:29.490Z,12.18
